Time;durP1;ratioP1;P1;durP2;ratioP2;P2;SDS_P1;SDS_P2;PMS_P1;PMS_P2;Temp;Humidity;BMP_temperature;BMP_pressure;BME280_temperature;BME280_humidity;BME280_pressure;Samples;Min_cycle;Max_cycle;Signal;HPM_P1;HPM_P2
2021/03/18 00:00:57;;;;;;;6.00;3.25;;;;;;;21.83;19.15;98276.97;5037233;28;20407;-88
2021/03/18 00:03:31;;;;;;;6.35;3.70;;;;;;;23.14;17.63;98281.00;5040179;28;20033;-88
2021/03/18 00:05:58;;;;;;;9.55;5.13;;;;;;;21.53;18.86;98273.25;5041405;28;20033;-88
2021/03/18 00:08:25;;;;;;;8.27;3.30;;;;;;;20.76;20.25;98275.38;5037965;28;20025;-88
2021/03/18 00:10:52;;;;;;;5.72;3.90;;;;;;;21.10;19.46;98279.16;5034670;28;20188;-88
2021/03/18 00:13:20;;;;;;;5.93;3.08;;;;;;;21.29;19.52;98272.25;5043677;28;20041;-88
2021/03/18 00:15:46;;;;;;;7.30;4.55;;;;;;;21.18;19.36;98271.53;5039047;28;20041;-88
2021/03/18 00:18:15;;;;;;;9.00;5.22;;;;;;;20.65;20.07;98274.63;5043676;28;20435;-88
2021/03/18 00:20:41;;;;;;;7.60;4.22;;;;;;;20.25;20.41;98269.63;5043301;28;20026;-88
2021/03/18 00:23:07;;;;;;;9.75;4.20;;;;;;;18.54;22.60;98276.31;5038444;28;20412;-87
2021/03/18 00:25:34;;;;;;;8.35;3.60;;;;;;;19.88;21.39;98279.22;5044086;28;20029;-87
2021/03/18 00:28:01;;;;;;;10.50;5.43;;;;;;;17.89;23.47;98290.28;5034274;28;20061;-87
2021/03/18 00:30:27;;;;;;;10.95;4.90;;;;;;;15.94;26.42;98282.31;5042495;28;20435;-87
2021/03/18 00:32:54;;;;;;;10.38;5.30;;;;;;;17.45;24.25;98280.41;5040285;28;20417;-88
2021/03/18 00:35:22;;;;;;;8.75;4.80;;;;;;;16.96;25.06;98273.25;5038237;28;20108;-88
2021/03/18 00:37:50;;;;;;;8.68;5.05;;;;;;;16.99;25.20;98280.78;5039452;28;20493;-88
2021/03/18 00:40:21;;;;;;;10.38;4.75;;;;;;;17.88;23.86;98276.75;5037472;28;20124;-88
2021/03/18 00:42:54;;;;;;;12.03;5.07;;;;;;;17.56;24.17;98278.53;5036478;28;20187;-87
2021/03/18 00:45:21;;;;;;;6.32;3.95;;;;;;;19.26;22.42;98270.50;5041748;28;20115;-88
2021/03/18 00:47:48;;;;;;;6.63;4.38;;;;;;;18.32;23.25;98265.50;5034801;28;20025;-88
2021/03/18 00:50:19;;;;;;;7.50;4.05;;;;;;;18.19;23.40;98267.81;5038747;28;20033;-88
2021/03/18 00:52:45;;;;;;;7.93;4.82;;;;;;;17.37;24.64;98262.09;5045850;28;20033;-87
2021/03/18 00:55:12;;;;;;;5.45;3.65;;;;;;;18.14;23.59;98270.97;5043064;28;20029;-88
2021/03/18 00:57:38;;;;;;;5.82;3.53;;;;;;;19.54;21.99;98264.16;5038259;28;20030;-88
2021/03/18 01:00:13;;;;;;;5.70;3.90;;;;;;;17.60;24.25;98271.00;5021461;28;20043;-88
2021/03/18 01:02:39;;;;;;;5.68;4.20;;;;;;;18.04;23.95;98262.59;5023936;28;20065;-88
2021/03/18 01:05:15;;;;;;;9.80;5.60;;;;;;;17.22;25.24;98264.75;5007091;28;20493;-86
2021/03/18 01:07:42;;;;;;;6.22;3.90;;;;;;;18.20;23.72;98261.09;5043808;28;20035;-86
2021/03/18 01:10:09;;;;;;;5.57;3.05;;;;;;;18.37;23.61;98257.56;5044511;28;20497;-86
2021/03/18 01:12:36;;;;;;;6.53;3.70;;;;;;;19.58;21.96;98253.81;5038163;28;20033;-86
2021/03/18 01:15:04;;;;;;;6.97;4.00;;;;;;;18.21;23.76;98254.31;5037809;28;20048;-86
2021/03/18 01:17:31;;;;;;;7.43;4.57;;;;;;;17.06;25.26;98257.91;5038999;28;20056;-86
2021/03/18 01:19:57;;;;;;;10.45;4.75;;;;;;;16.26;26.18;98262.16;5037306;28;20048;-86
2021/03/18 01:22:23;;;;;;;8.40;4.38;;;;;;;16.91;25.64;98253.38;5024296;28;20036;-86
2021/03/18 01:24:53;;;;;;;4.95;3.28;;;;;;;19.01;23.21;98250.22;5039931;28;20048;-86
2021/03/18 01:27:19;;;;;;;5.05;3.70;;;;;;;19.84;21.44;98253.38;5039743;28;20025;-86
2021/03/18 01:29:45;;;;;;;4.82;3.45;;;;;;;18.90;22.60;98259.72;5043337;28;20685;-86
2021/03/18 01:32:11;;;;;;;4.22;2.50;;;;;;;20.86;20.48;98249.41;5035388;28;20489;-86
2021/03/18 01:34:37;;;;;;;5.88;2.70;;;;;;;21.69;19.58;98246.38;5046264;28;20540;-86
2021/03/18 01:37:03;;;;;;;6.43;3.70;;;;;;;21.29;19.86;98247.13;5015298;28;20440;-86
2021/03/18 01:39:29;;;;;;;4.40;3.13;;;;;;;21.30;19.92;98252.31;5039617;28;20044;-86
2021/03/18 01:41:55;;;;;;;6.13;3.85;;;;;;;19.77;21.20;98247.00;5023275;28;20388;-86
2021/03/18 01:44:21;;;;;;;6.03;3.10;;;;;;;19.35;21.92;98249.84;5038155;28;20040;-85
2021/03/18 01:46:47;;;;;;;6.85;3.70;;;;;;;18.31;23.27;98253.56;5038949;28;20104;-85
2021/03/18 01:49:13;;;;;;;4.97;3.25;;;;;;;20.54;20.70;98241.19;5020388;28;20034;-85
2021/03/18 01:51:39;;;;;;;6.10;3.63;;;;;;;20.24;20.65;98249.31;5048440;28;20033;-86
2021/03/18 01:54:06;;;;;;;6.63;3.95;;;;;;;19.32;21.14;98249.41;5039863;28;20037;-85
2021/03/18 01:56:32;;;;;;;9.18;4.18;;;;;;;17.75;23.05;98258.84;5041432;28;20312;-85
2021/03/18 01:58:58;;;;;;;4.50;2.65;;;;;;;16.88;24.46;98254.13;5045614;28;20025;-86
2021/03/18 02:01:24;;;;;;;7.97;3.22;;;;;;;15.47;26.74;98260.66;5044345;28;20489;-87
2021/03/18 02:03:50;;;;;;;6.55;2.85;;;;;;;15.64;26.82;98266.44;5044584;28;20041;-87
2021/03/18 02:06:16;;;;;;;7.55;4.07;;;;;;;15.70;26.63;98261.41;5044603;28;20485;-87
2021/03/18 02:08:42;;;;;;;6.45;3.50;;;;;;;16.32;25.29;98257.06;5036498;28;20030;-87
2021/03/18 02:11:08;;;;;;;4.80;3.25;;;;;;;15.96;25.95;98264.13;5049774;28;20408;-87
2021/03/18 02:13:34;;;;;;;4.97;3.33;;;;;;;17.60;23.87;98262.69;5063029;28;20037;-87
2021/03/18 02:16:08;;;;;;;6.18;3.60;;;;;;;15.68;26.63;98264.50;5068588;28;20029;-87
2021/03/18 02:19:12;;;;;;;4.80;3.05;;;;;;;16.96;24.44;98269.69;5063412;28;20036;-87
2021/03/18 02:21:41;;;;;;;4.70;2.88;;;;;;;18.47;22.85;98258.81;5061567;28;20021;-87
2021/03/18 02:24:39;;;;;;;3.72;2.67;;;;;;;18.07;22.71;98262.59;5059036;28;20040;-88
2021/03/18 02:27:33;;;;;;;5.38;3.20;;;;;;;17.93;23.01;98266.09;5036636;28;20118;-87
2021/03/18 02:30:11;;;;;;;9.02;3.53;;;;;;;16.70;24.70;98267.84;5063258;28;20037;-87
2021/03/18 02:33:16;;;;;;;6.97;3.53;;;;;;;14.63;27.56;98271.84;5062095;28;20107;-87
2021/03/18 02:36:01;;;;;;;9.05;4.32;;;;;;;14.37;28.62;98278.03;5059121;28;20037;-87
2021/03/18 02:38:56;;;;;;;6.78;3.67;;;;;;;14.92;27.93;98273.13;5062662;28;20021;-87
2021/03/18 02:41:28;;;;;;;5.47;3.42;;;;;;;13.67;30.03;98282.00;5062806;28;20053;-85
2021/03/18 02:44:12;;;;;;;7.47;4.00;;;;;;;16.34;26.13;98266.59;5060473;28;20127;-85
2021/03/18 02:46:40;;;;;;;5.53;3.35;;;;;;;17.87;23.63;98269.63;5062142;28;20060;-85
2021/03/18 02:49:09;;;;;;;5.43;2.55;;;;;;;18.80;22.66;98266.06;5061816;28;20039;-85
2021/03/18 02:51:37;;;;;;;5.95;3.38;;;;;;;18.93;22.32;98259.72;5061717;28;20115;-85
2021/03/18 02:54:06;;;;;;;4.78;2.92;;;;;;;18.73;22.82;98261.28;5067800;28;20056;-85
2021/03/18 02:56:35;;;;;;;3.58;2.50;;;;;;;19.92;21.21;98262.50;5061595;28;20116;-86
2021/03/18 02:59:03;;;;;;;3.80;2.40;;;;;;;20.79;20.13;98263.41;5057611;28;20087;-85
2021/03/18 03:01:31;;;;;;;5.15;3.00;;;;;;;18.25;22.78;98271.78;5055757;28;20037;-85
2021/03/18 03:03:58;;;;;;;3.85;2.30;;;;;;;19.66;21.38;98265.75;5063463;28;20029;-84
2021/03/18 03:06:26;;;;;;;4.32;2.65;;;;;;;19.44;21.58;98267.72;5057169;28;20037;-85
2021/03/18 03:08:53;;;;;;;4.13;2.58;;;;;;;19.00;22.07;98273.66;5063661;28;20079;-85
2021/03/18 03:11:23;;;;;;;5.72;3.30;;;;;;;18.89;22.52;98270.06;5049681;28;20048;-87
2021/03/18 03:13:51;;;;;;;6.97;2.90;;;;;;;18.41;23.07;98274.25;5031243;28;20029;-87
2021/03/18 03:16:20;;;;;;;6.00;3.75;;;;;;;17.40;24.45;98277.97;5041836;28;20031;-87
2021/03/18 03:18:48;;;;;;;5.05;3.33;;;;;;;17.96;24.05;98281.19;5038385;28;20064;-87
2021/03/18 03:21:17;;;;;;;9.65;5.00;;;;;;;17.82;23.90;98281.91;5040049;28;20095;-87
2021/03/18 03:23:45;;;;;;;6.18;3.45;;;;;;;17.73;24.68;98280.66;5043918;28;20032;-87
2021/03/18 03:26:14;;;;;;;4.88;3.47;;;;;;;18.92;22.95;98276.81;5043136;28;20120;-88
2021/03/18 03:28:40;;;;;;;5.75;3.78;;;;;;;18.94;22.84;98275.25;5041498;28;20029;-87
2021/03/18 03:31:07;;;;;;;8.60;4.45;;;;;;;18.38;23.74;98281.41;5046349;28;20028;-87
2021/03/18 03:33:34;;;;;;;4.75;3.20;;;;;;;19.25;22.92;98282.81;5041464;28;20028;-87
2021/03/18 03:36:00;;;;;;;5.78;3.08;;;;;;;20.23;21.58;98285.97;5038935;28;20040;-87
2021/03/18 03:38:27;;;;;;;8.25;3.75;;;;;;;20.53;21.14;98280.66;5043634;28;20033;-87
2021/03/18 03:40:54;;;;;;;3.00;2.65;;;;;;;20.84;20.68;98284.50;5038266;28;20411;-87
2021/03/18 03:43:21;;;;;;;5.50;3.03;;;;;;;21.50;20.20;98282.44;5038472;28;20033;-87
2021/03/18 03:45:48;;;;;;;4.95;2.53;;;;;;;22.13;19.47;98276.28;5048458;28;20056;-86
2021/03/18 03:48:14;;;;;;;7.68;5.93;;;;;;;20.31;21.27;98282.72;5035736;28;20029;-86
2021/03/18 03:50:41;;;;;;;7.05;4.75;;;;;;;18.54;23.82;98284.66;5035322;28;20478;-86
2021/03/18 03:53:10;;;;;;;8.77;5.28;;;;;;;17.59;24.79;98286.09;5034468;28;20064;-86
2021/03/18 03:55:58;;;;;;;6.82;4.63;;;;;;;19.43;22.76;98282.88;5030657;28;20429;-86
2021/03/18 03:58:41;;;;;;;6.47;5.22;;;;;;;20.18;21.72;98286.34;5048683;28;20032;-86
2021/03/18 04:01:16;;;;;;;6.00;4.05;;;;;;;21.43;20.23;98285.31;5039553;28;20477;-86
2021/03/18 04:03:45;;;;;;;9.95;5.38;;;;;;;21.06;20.65;98288.75;5044885;28;20040;-87
2021/03/18 04:06:12;;;;;;;9.43;4.57;;;;;;;21.89;19.60;98289.31;5040102;28;20485;-87
2021/03/18 04:08:43;;;;;;;5.57;3.78;;;;;;;22.45;19.06;98282.28;5031724;28;20093;-87
2021/03/18 04:11:09;;;;;;;8.27;4.35;;;;;;;22.50;18.86;98279.03;5035299;28;20046;-87
2021/03/18 04:13:36;;;;;;;5.85;4.22;;;;;;;22.58;18.83;98283.34;5039250;28;20048;-87
2021/03/18 04:16:03;;;;;;;6.43;3.90;;;;;;;22.28;19.18;98288.91;5045134;28;20032;-87
2021/03/18 04:18:39;;;;;;;6.28;4.65;;;;;;;21.45;19.99;98294.09;5038831;28;20440;-87
2021/03/18 04:21:08;;;;;;;5.13;3.72;;;;;;;22.09;19.41;98289.50;5025777;28;20370;-87
2021/03/18 04:23:34;;;;;;;7.68;4.72;;;;;;;22.31;19.25;98295.69;5042713;28;20041;-87
2021/03/18 04:26:01;;;;;;;6.88;4.05;;;;;;;21.84;19.84;98286.94;5036076;28;20029;-87
2021/03/18 04:28:29;;;;;;;6.88;4.28;;;;;;;21.02;20.54;98302.72;5037298;28;20086;-87
2021/03/18 04:30:57;;;;;;;6.50;4.15;;;;;;;21.55;20.13;98294.00;5050611;28;20055;-87
2021/03/18 04:33:26;;;;;;;7.75;4.57;;;;;;;20.60;21.16;98289.81;5028939;28;20031;-87
2021/03/18 04:35:54;;;;;;;8.30;5.07;;;;;;;20.46;21.74;98297.44;5040672;28;20132;-87
2021/03/18 04:38:20;;;;;;;8.38;4.90;;;;;;;20.73;21.14;98297.69;5041087;28;20095;-87
2021/03/18 04:40:47;;;;;;;11.70;6.78;;;;;;;19.46;22.79;98304.34;5037321;28;20252;-86
2021/03/18 04:43:13;;;;;;;12.93;8.55;;;;;;;17.29;25.43;98305.66;5045085;28;20108;-86
2021/03/18 04:45:40;;;;;;;10.07;6.85;;;;;;;18.68;24.23;98308.13;5043954;28;20029;-87
2021/03/18 04:48:08;;;;;;;11.35;7.43;;;;;;;14.77;29.16;98309.97;5038330;28;20032;-86
2021/03/18 04:50:35;;;;;;;11.52;7.15;;;;;;;13.50;31.52;98308.03;5039246;28;20120;-85
2021/03/18 04:53:01;;;;;;;15.70;8.65;;;;;;;12.41;34.14;98324.41;5036639;28;20036;-86
2021/03/18 04:55:28;;;;;;;16.05;9.65;;;;;;;11.56;36.06;98329.25;5042408;28;20040;-87
2021/03/18 04:58:06;;;;;;;14.60;9.52;;;;;;;11.14;37.10;98325.94;5040982;28;20486;-85
2021/03/18 05:00:34;;;;;;;14.45;9.00;;;;;;;10.93;37.58;98330.72;5034328;28;20046;-85
2021/03/18 05:03:03;;;;;;;12.90;8.13;;;;;;;11.25;37.69;98324.34;5048231;28;20100;-85
2021/03/18 05:05:30;;;;;;;10.40;7.57;;;;;;;12.61;34.11;98320.66;5040677;28;20478;-84
2021/03/18 05:07:58;;;;;;;15.93;8.85;;;;;;;13.28;32.91;98325.19;5040345;28;21098;-85
2021/03/18 05:10:28;;;;;;;10.70;7.13;;;;;;;15.66;28.95;98318.66;5048526;28;20048;-85
2021/03/18 05:12:56;;;;;;;11.93;7.05;;;;;;;14.36;30.85;98326.16;5041074;28;20496;-85
2021/03/18 05:15:23;;;;;;;13.43;7.32;;;;;;;15.31;29.63;98318.84;5045312;28;20069;-86
2021/03/18 05:17:50;;;;;;;10.50;7.00;;;;;;;16.00;28.27;98312.06;5039692;28;20354;-85
2021/03/18 05:20:21;;;;;;;11.15;7.28;;;;;;;16.61;27.15;98320.00;5039244;28;20397;-85
2021/03/18 05:22:48;;;;;;;13.35;7.53;;;;;;;16.96;26.23;98320.41;5046652;28;20048;-86
2021/03/18 05:25:19;;;;;;;11.32;7.28;;;;;;;16.03;27.59;98324.34;5032839;28;20037;-84
2021/03/18 05:27:45;;;;;;;8.90;6.47;;;;;;;15.81;27.78;98328.78;5020935;28;20032;-85
2021/03/18 05:30:13;;;;;;;8.63;4.85;;;;;;;16.61;26.96;98331.09;5051901;28;20037;-86
2021/03/18 05:32:39;;;;;;;10.35;6.60;;;;;;;17.86;24.59;98329.94;5048014;28;20037;-86
2021/03/18 05:35:08;;;;;;;9.50;6.35;;;;;;;17.00;25.60;98324.00;5037035;28;20393;-84
2021/03/18 05:37:34;;;;;;;8.00;5.35;;;;;;;19.33;23.18;98326.19;5040245;28;20110;-84
2021/03/18 05:40:03;;;;;;;7.65;4.90;;;;;;;18.02;24.11;98323.28;5050313;28;20465;-84
2021/03/18 05:42:29;;;;;;;8.93;6.25;;;;;;;16.20;27.00;98332.09;5033609;28;20045;-84
2021/03/18 05:44:55;;;;;;;10.43;6.72;;;;;;;16.18;26.93;98324.16;5044041;28;20152;-85
2021/03/18 05:47:23;;;;;;;10.98;5.35;;;;;;;16.98;25.46;98329.13;5050824;28;20104;-85
2021/03/18 05:49:50;;;;;;;9.57;6.65;;;;;;;16.38;25.93;98328.38;5041499;28;20116;-85
2021/03/18 05:52:17;;;;;;;8.23;5.20;;;;;;;17.16;25.45;98341.19;5043518;28;20037;-85
2021/03/18 05:54:47;;;;;;;6.72;5.00;;;;;;;18.80;23.04;98333.63;5039670;28;20063;-85
2021/03/18 05:57:15;;;;;;;7.93;5.90;;;;;;;15.20;28.07;98349.09;5037191;28;20477;-85
2021/03/18 05:59:46;;;;;;;9.48;6.30;;;;;;;15.74;27.17;98345.28;5038954;28;20029;-85
2021/03/18 06:02:13;;;;;;;10.05;6.88;;;;;;;15.90;26.65;98341.19;5045948;28;20033;-85
2021/03/18 06:04:39;;;;;;;8.80;5.80;;;;;;;16.42;26.24;98343.09;5045585;28;20033;-85
2021/03/18 06:07:06;;;;;;;10.88;6.18;;;;;;;16.71;25.46;98337.94;5048313;28;20075;-84
2021/03/18 06:09:33;;;;;;;9.48;6.40;;;;;;;15.06;28.06;98350.78;5039013;28;20309;-85
2021/03/18 06:11:59;;;;;;;7.68;5.47;;;;;;;16.75;26.09;98347.09;5045749;28;20033;-84
2021/03/18 06:14:26;;;;;;;9.10;5.35;;;;;;;18.37;23.59;98349.28;5028583;28;20033;-84
2021/03/18 06:16:56;;;;;;;8.15;5.78;;;;;;;17.59;24.44;98349.94;5044881;28;20037;-84
2021/03/18 06:19:22;;;;;;;6.80;4.83;;;;;;;17.88;23.92;98360.88;5042042;28;20030;-84
2021/03/18 06:21:56;;;;;;;10.70;6.18;;;;;;;16.36;25.66;98349.34;5039011;28;20033;-84
2021/03/18 06:24:25;;;;;;;9.73;5.25;;;;;;;15.07;28.11;98350.44;5040749;28;20048;-85
2021/03/18 06:26:52;;;;;;;9.80;5.88;;;;;;;15.54;27.42;98361.16;5037528;28;20516;-87
2021/03/18 06:29:29;;;;;;;8.80;5.95;;;;;;;18.15;24.07;98352.34;5027784;28;20105;-86
2021/03/18 06:31:55;;;;;;;9.60;6.07;;;;;;;18.13;23.13;98360.28;5043920;28;20037;-88
2021/03/18 06:34:50;;;;;;;8.05;4.43;;;;;;;17.74;23.63;98359.97;5047912;28;20108;-89
2021/03/18 06:37:41;;;;;;;9.75;5.88;;;;;;;16.90;24.39;98369.03;5046485;28;20384;-84
2021/03/18 06:40:15;;;;;;;8.85;5.32;;;;;;;13.26;29.50;98379.06;5045003;28;20416;-87
2021/03/18 06:42:51;;;;;;;11.65;6.20;;;;;;;11.99;32.70;98373.50;5051406;28;20043;-86
2021/03/18 06:45:17;;;;;;;10.10;6.65;;;;;;;13.15;31.37;98373.31;5048109;28;20037;-86
2021/03/18 06:47:48;;;;;;;8.23;5.38;;;;;;;14.34;28.99;98374.63;5055362;28;20107;-85
2021/03/18 06:50:16;;;;;;;;;;;;;;;12.68;30.67;98375.94;5048629;28;20409;-85
2021/03/18 06:52:43;;;;;;;8.35;6.20;;;;;;;12.25;31.98;98381.34;5041083;28;19971;-87
2021/03/18 06:55:12;;;;;;;6.70;5.25;;;;;;;14.23;29.31;98371.59;5045580;28;20034;-87
2021/03/18 06:57:39;;;;;;;10.75;6.15;;;;;;;14.45;28.80;98364.59;5046099;28;20021;-88
2021/03/18 07:00:08;;;;;;;8.75;6.13;;;;;;;13.14;30.21;98375.25;5042081;28;20039;-88
2021/03/18 07:02:40;;;;;;;8.38;5.47;;;;;;;12.70;30.80;98372.81;5043813;28;20037;-89
2021/03/18 07:05:19;;;;;;;9.27;5.95;;;;;;;12.07;31.73;98382.75;5046465;28;20033;-89
2021/03/18 07:07:47;;;;;;;12.40;6.97;;;;;;;12.77;31.40;98384.03;5045095;28;20043;-90
2021/03/18 07:10:13;;;;;;;9.98;6.32;;;;;;;12.71;30.80;98386.25;5041033;28;20041;-91
2021/03/18 07:12:41;;;;;;;9.77;5.80;;;;;;;13.51;29.74;98377.78;5038957;28;20041;-89
2021/03/18 07:15:18;;;;;;;9.40;6.50;;;;;;;14.54;28.29;98370.69;5046304;28;20033;-90
2021/03/18 07:17:44;;;;;;;11.57;5.93;;;;;;;15.88;26.79;98382.28;5041938;28;20025;-90
2021/03/18 07:20:14;;;;;;;12.02;5.97;;;;;;;14.65;27.88;98387.50;5035451;28;20037;-89
2021/03/18 07:22:48;;;;;;;6.85;4.65;;;;;;;14.67;27.90;98376.88;5048210;28;20026;-89
2021/03/18 07:25:17;;;;;;;8.27;5.22;;;;;;;15.94;25.84;98379.22;5037104;28;20104;-89
2021/03/18 07:27:45;;;;;;;9.75;5.82;;;;;;;14.49;27.80;98374.53;5049174;28;20028;-90
2021/03/18 07:30:27;;;;;;;9.15;5.88;;;;;;;13.27;29.65;98383.44;5046809;28;20033;-90
2021/03/18 07:32:54;;;;;;;8.25;5.18;;;;;;;11.84;31.86;98381.63;5040056;28;20507;-90
2021/03/18 07:35:21;;;;;;;6.93;4.53;;;;;;;13.87;29.27;98388.50;5026692;28;20042;-91
2021/03/18 07:37:47;;;;;;;6.95;4.88;;;;;;;13.81;29.15;98385.22;5020168;28;20040;-92
2021/03/18 07:40:13;;;;;;;11.77;6.20;;;;;;;13.35;29.75;98380.50;5029465;28;20056;-92
2021/03/18 07:42:41;;;;;;;9.18;5.60;;;;;;;12.77;30.77;98384.03;5045877;28;20082;-89
2021/03/18 07:45:09;;;;;;;8.75;5.18;;;;;;;12.66;30.21;98386.50;5022940;28;20082;-90
2021/03/18 07:47:37;;;;;;;7.50;4.60;;;;;;;14.20;27.75;98382.56;5019211;28;20857;-89
2021/03/18 07:50:09;;;;;;;7.57;5.05;;;;;;;14.41;27.62;98381.09;5047271;28;20040;-89
2021/03/18 07:52:38;;;;;;;6.00;3.72;;;;;;;15.62;26.03;98375.91;5048588;28;20397;-88
2021/03/18 07:55:05;;;;;;;8.73;4.38;;;;;;;16.90;24.16;98373.78;5048076;28;20408;-88
2021/03/18 07:57:46;;;;;;;9.40;5.93;;;;;;;17.04;24.19;98373.94;5042044;28;20037;-88
2021/03/18 08:00:15;;;;;;;9.23;5.28;;;;;;;15.70;25.67;98381.22;5040700;28;20058;-87
2021/03/18 08:02:41;;;;;;;7.13;3.80;;;;;;;16.67;24.93;98373.13;5042563;28;20519;-90
2021/03/18 08:05:08;;;;;;;8.13;4.53;;;;;;;16.98;24.08;98379.06;5035224;28;20061;-92
2021/03/18 08:07:44;;;;;;;8.13;4.50;;;;;;;15.27;26.20;98380.78;5042204;28;20529;-89
2021/03/18 08:10:30;;;;;;;4.75;3.05;;;;;;;19.02;22.61;98370.66;5035490;28;20037;-91
2021/03/18 08:12:58;;;;;;;4.80;2.75;;;;;;;19.11;22.26;98365.53;5038740;28;20037;-90
2021/03/18 08:15:25;;;;;;;5.00;3.20;;;;;;;20.59;20.16;98366.31;5045969;28;20482;-90
2021/03/18 08:17:52;;;;;;;12.20;4.78;;;;;;;19.05;21.09;98358.72;5031283;28;20124;-90
2021/03/18 08:20:37;;;;;;;5.97;2.88;;;;;;;19.10;20.69;98375.84;5040504;28;20053;-90
2021/03/18 08:23:22;;;;;;;4.20;2.85;;;;;;;20.05;20.18;98366.78;5043071;28;20047;-88
2021/03/18 08:25:49;;;;;;;4.55;2.28;;;;;;;20.60;20.96;98359.53;5044625;28;20431;-89
2021/03/18 08:28:55;;;;;;;5.25;2.70;;;;;;;20.49;20.36;98364.34;5043531;28;20086;-89
2021/03/18 08:31:32;;;;;;;4.95;3.10;;;;;;;16.46;23.94;98370.84;5026080;28;20036;-90
2021/03/18 08:34:01;;;;;;;3.17;2.47;;;;;;;15.18;25.75;98373.56;5035456;28;20041;-88
2021/03/18 08:36:53;;;;;;;4.50;2.75;;;;;;;14.06;27.22;98382.22;5045392;28;20374;-88
2021/03/18 08:39:45;;;;;;;11.73;3.30;;;;;;;14.73;26.07;98375.41;5041903;28;20119;-88
2021/03/18 08:42:32;;;;;;;5.32;2.67;;;;;;;15.10;24.74;98359.94;5045041;28;20041;-90
2021/03/18 08:45:06;;;;;;;5.15;2.40;;;;;;;15.45;25.44;98363.38;5042185;28;20041;-88
2021/03/18 08:47:45;;;;;;;4.43;2.20;;;;;;;17.06;22.64;98352.19;5044584;28;20029;-89
2021/03/18 08:50:14;;;;;;;4.72;2.42;;;;;;;17.81;22.59;98352.50;5038328;28;20108;-88
2021/03/18 08:52:45;;;;;;;2.25;1.52;;;;;;;16.99;22.92;98364.00;5040647;28;20124;-88
2021/03/18 08:55:34;;;;;;;2.60;1.23;;;;;;;17.37;19.59;98362.00;5043417;28;20029;-88
2021/03/18 08:58:01;;;;;;;2.22;0.90;;;;;;;16.08;21.94;98368.34;5036348;28;20100;-89
2021/03/18 09:00:27;;;;;;;1.55;1.00;;;;;;;14.37;24.57;98368.38;5043908;28;20112;-89
2021/03/18 09:02:53;;;;;;;0.98;0.88;;;;;;;14.25;24.13;98368.47;5041642;28;20076;-88
2021/03/18 09:05:21;;;;;;;1.60;0.80;;;;;;;12.92;25.22;98373.06;5043781;28;20320;-90
2021/03/18 09:07:53;;;;;;;1.42;1.00;;;;;;;12.38;25.50;98377.41;5042711;28;20030;-88
2021/03/18 09:10:24;;;;;;;1.40;0.90;;;;;;;12.17;25.31;98363.81;5041468;28;20037;-88
2021/03/18 09:13:14;;;;;;;4.60;0.90;;;;;;;15.45;21.90;98357.06;5022906;28;20060;-89
2021/03/18 09:15:43;;;;;;;1.10;0.70;;;;;;;15.34;21.59;98365.13;5036482;28;20428;-88
2021/03/18 09:18:19;;;;;;;1.73;0.98;;;;;;;13.92;23.03;98363.38;5047883;28;20025;-88
2021/03/18 09:20:50;;;;;;;2.92;0.88;;;;;;;15.40;22.29;98351.81;5047650;28;20040;-88
2021/03/18 09:23:27;;;;;;;1.33;1.00;;;;;;;14.55;23.31;98358.50;5029280;28;20493;-88
2021/03/18 09:25:58;;;;;;;1.45;1.33;;;;;;;14.59;23.43;98364.06;5044192;28;20044;-89
2021/03/18 09:28:24;;;;;;;1.10;0.68;;;;;;;14.84;24.06;98354.34;5032509;28;20044;-89
2021/03/18 09:30:54;;;;;;;0.93;0.77;;;;;;;14.39;23.34;98355.81;5038091;28;20029;-87
2021/03/18 09:33:39;;;;;;;1.93;0.90;;;;;;;13.73;24.92;98363.34;5020336;28;20434;-89
2021/03/18 09:36:15;;;;;;;4.60;1.42;;;;;;;12.44;26.65;98360.28;5025024;28;20333;-89
2021/03/18 09:38:53;;;;;;;4.30;1.30;;;;;;;12.79;26.94;98354.19;5037769;28;20068;-89
2021/03/18 09:41:25;;;;;;;1.88;1.38;;;;;;;13.36;25.29;98364.78;5027752;28;20132;-89
2021/03/18 09:44:13;;;;;;;3.45;1.23;;;;;;;13.45;25.38;98346.91;5043461;28;20566;-89
2021/03/18 09:46:42;;;;;;;5.78;1.08;;;;;;;13.14;25.86;98339.41;5032724;28;20029;-90
2021/03/18 09:49:08;;;;;;;1.17;1.00;;;;;;;14.15;25.91;98336.69;5038886;28;20025;-89
2021/03/18 09:51:37;;;;;;;1.77;1.30;;;;;;;13.81;25.58;98348.56;5025967;28;22160;-90
2021/03/18 09:54:07;;;;;;;1.42;1.00;;;;;;;14.54;23.94;98334.78;5043689;28;20477;-90
2021/03/18 09:56:38;;;;;;;2.08;0.93;;;;;;;13.69;24.79;98335.66;5024367;28;20041;-90
2021/03/18 09:59:07;;;;;;;1.20;0.80;;;;;;;14.36;24.01;98336.38;5044384;28;20026;-90
2021/03/18 10:01:34;;;;;;;1.83;0.82;;;;;;;13.27;25.41;98342.09;5029544;28;20053;-90
2021/03/18 10:04:03;;;;;;;3.50;0.80;;;;;;;12.95;24.73;98333.75;5041327;28;20388;-90
2021/03/18 10:06:47;;;;;;;1.75;0.50;;;;;;;13.99;24.35;98335.94;5044968;28;20064;-91
2021/03/18 10:09:33;;;;;;;2.58;1.00;;;;;;;15.26;22.64;98323.91;5046113;28;20021;-91
2021/03/18 10:12:02;;;;;;;2.08;0.80;;;;;;;15.68;23.19;98319.88;5044492;28;20037;-90
2021/03/18 10:14:44;;;;;;;1.60;0.70;;;;;;;15.66;21.90;98318.66;5046368;28;20110;-90
2021/03/18 10:17:14;;;;;;;1.50;0.70;;;;;;;13.85;22.90;98322.63;5046570;28;20018;-91
2021/03/18 10:20:03;;;;;;;1.40;0.70;;;;;;;14.23;23.02;98329.38;5048828;28;20037;-91
2021/03/18 10:22:37;;;;;;;0.90;0.65;;;;;;;13.95;23.46;98354.41;5042213;28;20029;-90
2021/03/18 10:25:06;;;;;;;1.35;0.80;;;;;;;13.94;24.81;98347.28;5046386;28;20116;-90
2021/03/18 10:27:39;;;;;;;2.10;1.30;;;;;;;13.66;25.09;98343.84;5047089;28;20108;-90
2021/03/18 10:30:11;;;;;;;3.97;1.38;;;;;;;13.32;24.61;98325.28;5043018;28;20065;-91
2021/03/18 10:32:38;;;;;;;4.40;1.77;;;;;;;14.00;23.81;98323.75;5042673;28;20028;-89
2021/03/18 10:35:05;;;;;;;5.03;1.90;;;;;;;13.64;24.20;98324.91;5043320;28;20037;-90
2021/03/18 10:37:42;;;;;;;5.45;1.83;;;;;;;13.60;22.34;98317.72;5045836;28;20029;-91
2021/03/18 10:40:25;;;;;;;2.50;1.20;;;;;;;13.74;22.59;98318.03;5046100;28;20033;-90
2021/03/18 10:42:57;;;;;;;2.78;1.10;;;;;;;14.92;21.27;98303.53;5044291;28;20040;-91
2021/03/18 10:45:26;;;;;;;5.30;1.50;;;;;;;14.50;21.94;98300.75;5037243;28;20037;-91
2021/03/18 10:47:55;;;;;;;1.75;1.10;;;;;;;15.50;21.11;98293.09;5028430;28;20041;-91
2021/03/18 10:50:23;;;;;;;1.88;0.75;;;;;;;15.14;21.99;98297.22;5024982;28;20029;-90
2021/03/18 10:53:08;;;;;;;3.60;1.25;;;;;;;12.93;23.81;98304.97;5045142;28;20397;-91
2021/03/18 10:55:40;;;;;;;3.50;1.48;;;;;;;11.95;24.32;98314.00;5043935;28;20029;-91
2021/03/18 10:58:08;;;;;;;5.07;2.28;;;;;;;12.00;24.85;98308.25;5051682;28;20495;-90
2021/03/18 11:00:38;;;;;;;2.13;1.20;;;;;;;12.63;24.27;98301.00;5041254;28;20029;-90
2021/03/18 11:03:16;;;;;;;2.75;1.08;;;;;;;14.82;21.83;98298.63;5023810;28;20398;-89
2021/03/18 11:05:50;;;;;;;1.83;1.08;;;;;;;14.74;22.73;98280.31;5019316;28;20029;-90
2021/03/18 11:08:30;;;;;;;2.47;0.90;;;;;;;15.15;22.77;98282.22;5044439;28;20100;-90
2021/03/18 11:10:57;;;;;;;1.27;0.90;;;;;;;15.80;21.47;98280.91;5039740;28;20064;-90
2021/03/18 11:13:29;;;;;;;1.42;0.70;;;;;;;13.51;23.29;98304.09;5042811;28;20036;-91
2021/03/18 11:16:01;;;;;;;1.55;1.02;;;;;;;12.61;24.64;98303.31;5023808;28;20091;-90
2021/03/18 11:18:31;;;;;;;1.90;0.80;;;;;;;11.64;26.05;98296.16;5042539;28;20089;-90
2021/03/18 11:20:57;;;;;;;2.35;1.33;;;;;;;10.87;27.30;98319.16;5045298;28;20029;-90
2021/03/18 11:23:35;;;;;;;2.08;0.90;;;;;;;11.27;26.49;98304.78;5018782;28;20048;-90
2021/03/18 11:26:05;;;;;;;1.92;0.95;;;;;;;11.74;25.50;98294.91;5038136;28;20037;-89
2021/03/18 11:28:32;;;;;;;2.95;1.00;;;;;;;12.05;25.46;98294.25;5043299;28;20029;-89
2021/03/18 11:30:59;;;;;;;2.03;1.10;;;;;;;14.79;22.34;98286.34;5040778;28;20564;-90
2021/03/18 11:33:33;;;;;;;1.00;0.80;;;;;;;16.80;19.50;98272.69;5043146;28;20025;-89
2021/03/18 11:36:03;;;;;;;1.52;0.70;;;;;;;17.13;19.08;98269.81;5021450;28;20037;-89
2021/03/18 11:38:29;;;;;;;1.77;1.20;;;;;;;15.03;21.23;98274.91;5029206;28;20029;-89
2021/03/18 11:40:56;;;;;;;2.83;1.42;;;;;;;14.74;21.88;98274.78;5044061;28;20534;-90
2021/03/18 11:43:22;;;;;;;1.95;1.30;;;;;;;15.03;22.48;98272.16;5029030;28;20043;-88
2021/03/18 11:45:48;;;;;;;2.33;1.50;;;;;;;14.21;23.08;98271.75;5040506;28;20477;-88
2021/03/18 11:48:14;;;;;;;5.47;1.45;;;;;;;14.11;23.74;98271.53;5026891;28;20044;-88